createdAt,value
2022-09-13T00:01:44.677Z,73.23
2022-09-13T00:04:11.083Z,74.05
2022-09-13T00:06:37.405Z,74.26
2022-09-13T00:09:03.860Z,73.94
2022-09-13T00:11:31.361Z,74.41
2022-09-13T00:13:57.901Z,73.27
2022-09-13T00:16:25.823Z,74.21
2022-09-13T00:18:52.356Z,73.17
2022-09-13T00:21:19.838Z,74.18
2022-09-13T00:23:47.047Z,73.68
2022-09-13T00:26:15.335Z,74.70
2022-09-13T00:28:42.184Z,75.67
2022-09-13T00:31:09.526Z,74.73
2022-09-13T00:33:35.899Z,75.61
2022-09-13T00:36:06.554Z,73.81
2022-09-13T00:38:34.829Z,75.10
2022-09-13T00:41:01.205Z,73.39
2022-09-13T00:43:46.067Z,72.87
2022-09-13T00:46:24.466Z,72.58
2022-09-13T00:48:51.987Z,72.64
2022-09-13T00:51:18.305Z,73.83
2022-09-13T00:53:47.974Z,72.39
2022-09-13T00:56:26.931Z,73.55
2022-09-13T00:59:00.088Z,73.06
2022-09-13T01:01:29.486Z,73.15
2022-09-13T01:03:55.895Z,73.29
2022-09-13T01:06:29.341Z,73.21
2022-09-13T01:08:58.942Z,72.79
2022-09-13T01:11:33.513Z,71.92
2022-09-13T01:13:59.872Z,72.92
2022-09-13T01:16:26.404Z,73.07
2022-09-13T01:18:52.879Z,71.80
2022-09-13T01:21:37.957Z,71.73
2022-09-13T01:24:13.510Z,72.85
2022-09-13T01:26:39.770Z,72.27
2022-09-13T01:29:06.067Z,72.74
2022-09-13T01:31:38.473Z,72.69
2022-09-13T01:34:21.262Z,71.56
2022-09-13T01:36:47.695Z,71.91
2022-09-13T01:39:26.583Z,72.82
2022-09-13T01:42:11.000Z,72.98
2022-09-13T01:44:56.062Z,72.67
2022-09-13T01:47:28.538Z,72.62
2022-09-13T01:50:09.865Z,73.27
2022-09-13T01:52:50.538Z,72.76
2022-09-13T01:55:35.604Z,73.02
2022-09-13T01:58:09.398Z,73.33
2022-09-13T02:00:40.092Z,72.48
2022-09-13T02:03:12.887Z,73.60
2022-09-13T02:05:42.273Z,73.45
2022-09-13T02:08:12.050Z,73.96
2022-09-13T02:10:42.969Z,74.01
2022-09-13T02:13:13.145Z,75.13
2022-09-13T02:15:41.929Z,74.35
2022-09-13T02:18:26.137Z,75.75
2022-09-13T02:20:55.046Z,75.75
2022-09-13T02:23:28.888Z,76.07
2022-09-13T02:25:58.389Z,75.98
2022-09-13T02:28:28.886Z,76.42
2022-09-13T02:30:57.089Z,76.92
2022-09-13T02:33:23.366Z,75.40
2022-09-13T02:35:59.374Z,76.73
2022-09-13T02:38:29.095Z,75.78
2022-09-13T02:40:59.302Z,76.87
2022-09-13T02:43:35.213Z,77.73
2022-09-13T02:46:10.531Z,77.26
2022-09-13T02:48:46.670Z,77.86
2022-09-13T02:51:17.999Z,77.98
2022-09-13T02:53:47.318Z,76.62
2022-09-13T02:56:13.567Z,77.10
2022-09-13T02:58:53.904Z,77.14
2022-09-13T03:01:21.557Z,76.01
2022-09-13T03:03:48.396Z,76.38
2022-09-13T03:06:21.914Z,77.14
2022-09-13T03:08:48.328Z,77.33
2022-09-13T03:11:29.822Z,76.46
2022-09-13T03:14:14.891Z,75.60
2022-09-13T03:17:19.997Z,76.30
2022-09-13T03:20:07.341Z,77.39
2022-09-13T03:22:48.665Z,76.99
2022-09-13T03:25:28.873Z,76.96
2022-09-13T03:27:55.137Z,78.23
2022-09-13T03:30:21.563Z,77.28
2022-09-13T03:32:50.485Z,76.36
2022-09-13T03:35:22.640Z,76.82
2022-09-13T03:38:01.926Z,76.79
2022-09-13T03:40:42.396Z,77.53
2022-09-13T03:43:12.901Z,77.41
2022-09-13T03:45:42.955Z,77.49
2022-09-13T03:48:10.217Z,77.13
2022-09-13T03:50:36.869Z,77.65
2022-09-13T03:53:10.827Z,77.54
2022-09-13T03:55:43.588Z,78.08
2022-09-13T03:58:17.664Z,79.46
2022-09-13T04:00:45.513Z,79.95
2022-09-13T04:03:12.392Z,79.27
2022-09-13T04:05:39.071Z,79.87
2022-09-13T04:08:06.142Z,79.96
2022-09-13T04:10:32.936Z,82.30
2022-09-13T04:13:02.663Z,81.38
2022-09-13T04:15:30.872Z,82.01
2022-09-13T04:17:57.342Z,83.33
2022-09-13T04:20:25.022Z,83.92
2022-09-13T04:22:54.949Z,84.23
2022-09-13T04:25:22.121Z,83.30
2022-09-13T04:27:49.184Z,83.19
2022-09-13T04:30:15.647Z,84.13
2022-09-13T04:32:42.781Z,84.90
2022-09-13T04:35:09.333Z,84.20
2022-09-13T04:37:35.724Z,85.18
2022-09-13T04:40:02.248Z,84.99
2022-09-13T04:42:28.616Z,85.27
2022-09-13T04:44:55.716Z,85.60
2022-09-13T04:47:22.574Z,85.82
2022-09-13T04:49:48.895Z,85.65
2022-09-13T04:52:15.253Z,85.04
2022-09-13T04:54:41.538Z,85.04
2022-09-13T04:57:08.324Z,84.17
2022-09-13T04:59:34.700Z,85.50
2022-09-13T05:02:01.168Z,84.62
2022-09-13T05:04:27.495Z,84.44
2022-09-13T05:06:53.808Z,83.90
2022-09-13T05:09:20.102Z,85.14
2022-09-13T05:11:46.420Z,84.42
2022-09-13T05:14:12.796Z,82.53
2022-09-13T05:16:39.134Z,82.93
2022-09-13T05:19:05.483Z,83.71
2022-09-13T05:21:31.778Z,82.64
2022-09-13T05:23:58.407Z,81.61
2022-09-13T05:26:25.857Z,80.98
2022-09-13T05:28:52.226Z,81.92
2022-09-13T05:31:24.811Z,82.10
2022-09-13T05:34:05.134Z,82.11
2022-09-13T05:36:31.480Z,82.10
2022-09-13T05:39:26.050Z,81.86
2022-09-13T05:41:45.013Z,82.23
2022-09-13T05:44:13.479Z,81.17
2022-09-13T05:46:40.292Z,81.55
2022-09-13T05:49:06.639Z,81.35
2022-09-13T05:51:32.943Z,82.80
2022-09-13T05:53:59.584Z,82.94
2022-09-13T05:56:27.484Z,82.64
2022-09-13T05:58:55.002Z,82.36
2022-09-13T06:01:23.078Z,82.86
2022-09-13T06:03:49.796Z,82.38
2022-09-13T06:06:16.577Z,83.96
2022-09-13T06:08:43.138Z,83.65
2022-09-13T06:11:10.197Z,84.80
2022-09-13T06:13:36.737Z,84.18
2022-09-13T06:16:04.021Z,85.14
2022-09-13T06:18:31.210Z,83.57
2022-09-13T06:20:59.188Z,83.51
2022-09-13T06:23:25.709Z,83.82
2022-09-13T06:25:59.218Z,85.28
2022-09-13T06:28:25.501Z,84.11
2022-09-13T06:30:51.900Z,83.86
2022-09-13T06:33:18.332Z,84.96
2022-09-13T06:35:44.629Z,85.42
2022-09-13T06:38:10.957Z,84.71
2022-09-13T06:40:37.411Z,84.74
2022-09-13T06:43:03.758Z,86.10
2022-09-13T06:45:30.112Z,86.10
2022-09-13T06:47:56.462Z,84.44
2022-09-13T06:50:22.839Z,84.62
2022-09-13T06:52:49.157Z,86.32
2022-09-13T06:55:15.581Z,85.93
2022-09-13T06:57:41.898Z,86.16
2022-09-13T07:00:08.670Z,85.91
2022-09-13T07:02:35.028Z,86.60
2022-09-13T07:05:01.340Z,86.40
2022-09-13T07:07:27.692Z,85.01
2022-09-13T07:09:53.993Z,79.45
2022-09-13T07:12:20.851Z,84.49
2022-09-13T07:14:47.296Z,85.95
2022-09-13T07:17:13.664Z,85.17
2022-09-13T07:19:40.570Z,86.13
2022-09-13T07:22:07.004Z,86.15
2022-09-13T07:24:33.326Z,86.33
2022-09-13T07:26:59.660Z,85.38
2022-09-13T07:29:26.021Z,84.64
2022-09-13T07:31:54.127Z,84.35
2022-09-13T07:34:21.948Z,84.17
2022-09-13T07:36:48.734Z,84.95
2022-09-13T07:39:19.193Z,85.06
2022-09-13T07:41:48.237Z,84.20
2022-09-13T07:44:14.526Z,84.75
2022-09-13T07:46:41.639Z,84.89
2022-09-13T07:49:08.112Z,83.53
2022-09-13T07:51:35.623Z,85.16
2022-09-13T07:54:04.380Z,86.55
2022-09-13T07:56:34.887Z,85.68
2022-09-13T07:59:02.009Z,86.68
2022-09-13T08:01:30.140Z,85.55
2022-09-13T08:04:00.337Z,83.69
2022-09-13T08:06:28.121Z,84.17
2022-09-13T08:08:55.122Z,84.25
2022-09-13T08:11:41.698Z,84.51
2022-09-13T08:14:09.642Z,85.21
2022-09-13T08:16:36.032Z,85.17
2022-09-13T08:19:03.882Z,86.08
2022-09-13T08:21:37.652Z,86.84
2022-09-13T08:24:04.919Z,87.27
2022-09-13T08:26:32.348Z,87.12
2022-09-13T08:28:59.749Z,85.09
2022-09-13T08:31:26.737Z,85.33
2022-09-13T08:33:53.744Z,85.61
2022-09-13T08:36:20.745Z,84.50
2022-09-13T08:38:47.979Z,84.60
2022-09-13T08:41:33.075Z,84.77
2022-09-13T08:44:05.607Z,84.35
2022-09-13T08:46:37.588Z,85.91
2022-09-13T08:49:06.748Z,85.62
2022-09-13T08:51:37.669Z,86.15
2022-09-13T08:54:04.702Z,85.41
2022-09-13T08:56:43.167Z,85.86
2022-09-13T08:59:19.260Z,85.19
2022-09-13T09:02:04.515Z,84.35
2022-09-13T09:04:30.803Z,84.07
2022-09-13T09:07:10.610Z,83.61
2022-09-13T09:09:42.132Z,84.16
2022-09-13T09:12:17.265Z,85.10
2022-09-13T09:14:46.547Z,84.92
2022-09-13T09:17:27.101Z,85.00
2022-09-13T09:19:57.728Z,84.34
2022-09-13T09:22:25.418Z,84.43
2022-09-13T09:24:54.268Z,84.66
2022-09-13T09:27:21.438Z,84.64
2022-09-13T09:29:49.246Z,84.88
2022-09-13T09:32:30.910Z,84.87
2022-09-13T09:34:57.178Z,85.22
2022-09-13T09:37:24.994Z,85.34
2022-09-13T09:39:55.974Z,85.91
2022-09-13T09:42:28.420Z,85.33
2022-09-13T09:45:00.762Z,85.32
2022-09-13T09:47:29.525Z,85.06
2022-09-13T09:50:12.243Z,85.14
2022-09-13T09:52:58.931Z,85.81
2022-09-13T09:55:29.354Z,85.63
2022-09-13T09:57:59.880Z,85.09
2022-09-13T10:00:28.817Z,85.37
2022-09-13T10:02:57.545Z,84.77
2022-09-13T10:05:24.624Z,85.65
2022-09-13T10:07:56.692Z,85.89
2022-09-13T10:10:29.600Z,86.77
2022-09-13T10:12:56.944Z,87.06
2022-09-13T10:15:25.611Z,86.79
2022-09-13T10:18:21.135Z,87.22
2022-09-13T10:21:01.689Z,86.95
2022-09-13T10:23:28.044Z,86.72
2022-09-13T10:26:05.987Z,86.13
2022-09-13T10:28:41.133Z,85.24
2022-09-13T10:31:12.841Z,85.43
2022-09-13T10:33:51.350Z,85.38
2022-09-13T10:36:51.220Z,84.82
2022-09-13T10:39:18.048Z,85.25
2022-09-13T10:41:50.077Z,85.75
2022-09-13T10:44:25.838Z,85.49
2022-09-13T10:46:52.773Z,85.14
2022-09-13T10:49:38.155Z,85.44
2022-09-13T10:52:23.016Z,84.48
2022-09-13T10:54:49.315Z,84.24
2022-09-13T10:57:35.981Z,84.24
2022-09-13T11:00:05.020Z,83.62
2022-09-13T11:02:49.856Z,83.52
2022-09-13T11:05:51.729Z,83.38
2022-09-13T11:08:18.103Z,83.39
2022-09-13T11:10:58.554Z,83.44
2022-09-13T11:13:43.034Z,83.75
2022-09-13T11:16:20.452Z,83.45
2022-09-13T11:19:08.350Z,83.63
2022-09-13T11:21:43.691Z,84.22
2022-09-13T11:24:16.950Z,84.65
2022-09-13T11:26:46.302Z,84.58
2022-09-13T11:29:12.608Z,85.24
2022-09-13T11:31:57.916Z,84.67
2022-09-13T11:34:42.428Z,84.88
2022-09-13T11:37:17.967Z,84.57
2022-09-13T11:39:56.589Z,84.02
2022-09-13T11:42:28.792Z,85.10
2022-09-13T11:45:09.495Z,84.91
2022-09-13T11:47:41.663Z,86.00
2022-09-13T11:50:25.013Z,85.74
2022-09-13T11:52:51.370Z,86.34
2022-09-13T11:55:20.912Z,86.19
2022-09-13T11:57:49.910Z,86.32
2022-09-13T12:00:16.455Z,86.14
2022-09-13T12:02:47.284Z,86.14
2022-09-13T12:05:22.857Z,86.29
2022-09-13T12:07:52.498Z,85.51
2022-09-13T12:10:18.753Z,85.73
2022-09-13T12:12:50.549Z,85.82
2022-09-13T12:15:20.625Z,86.28
2022-09-13T12:18:13.226Z,86.13
2022-09-13T12:20:42.200Z,85.09
2022-09-13T12:23:14.047Z,85.18
2022-09-13T12:26:00.228Z,85.29
2022-09-13T12:28:46.894Z,85.94
2022-09-13T12:31:19.370Z,86.45
2022-09-13T12:33:46.684Z,86.29
2022-09-13T12:36:23.378Z,85.83
2022-09-13T12:38:52.842Z,84.89
2022-09-13T12:41:34.253Z,84.04
2022-09-13T12:44:20.318Z,83.81
2022-09-13T12:46:49.442Z,84.43
2022-09-13T12:49:28.090Z,83.97
2022-09-13T12:52:06.284Z,83.32
2022-09-13T12:54:38.851Z,82.63
2022-09-13T12:57:11.152Z,82.33
2022-09-13T12:59:59.736Z,82.86
2022-09-13T13:02:26.089Z,75.98
2022-09-13T13:04:54.461Z,81.01
2022-09-13T13:07:22.911Z,82.98
2022-09-13T13:09:53.622Z,82.20
2022-09-13T13:12:25.971Z,81.87
2022-09-13T13:14:56.882Z,81.22
2022-09-13T13:17:41.656Z,80.88
2022-09-13T13:20:26.843Z,81.09
2022-09-13T13:22:53.226Z,80.37
2022-09-13T13:25:25.543Z,80.73
2022-09-13T13:27:55.004Z,80.96
2022-09-13T13:30:42.540Z,80.07
2022-09-13T13:33:11.929Z,79.90
2022-09-13T13:35:38.239Z,81.14
2022-09-13T13:38:14.637Z,80.91
2022-09-13T13:40:42.596Z,80.70
2022-09-13T13:43:16.470Z,80.80
2022-09-13T13:45:56.761Z,80.85
2022-09-13T13:48:39.974Z,80.61
2022-09-13T13:51:13.835Z,79.77
2022-09-13T13:53:42.677Z,79.40
2022-09-13T13:56:18.005Z,79.63
2022-09-13T13:58:50.800Z,79.82
2022-09-13T14:01:20.863Z,79.66
2022-09-13T14:04:09.744Z,79.26
2022-09-13T14:06:54.917Z,78.64
2022-09-13T14:09:46.967Z,78.79
2022-09-13T14:12:13.318Z,79.07
2022-09-13T14:14:48.006Z,78.49
2022-09-13T14:17:20.895Z,77.39
2022-09-13T14:19:49.256Z,77.63
2022-09-13T14:22:20.180Z,77.39
2022-09-13T14:24:48.796Z,78.74
2022-09-13T14:27:20.400Z,77.99
2022-09-13T14:29:48.757Z,79.48
2022-09-13T14:32:20.666Z,79.08
2022-09-13T14:34:54.945Z,78.31
2022-09-13T14:37:24.333Z,78.58
2022-09-13T14:40:00.655Z,79.02
2022-09-13T14:42:37.165Z,79.09
2022-09-13T14:45:03.626Z,76.72
2022-09-13T14:47:31.986Z,77.03
2022-09-13T14:50:12.654Z,76.17
2022-09-13T14:52:45.504Z,76.89
2022-09-13T14:55:14.169Z,77.16
2022-09-13T14:57:43.927Z,76.86
2022-09-13T15:00:18.708Z,75.49
2022-09-13T15:02:59.701Z,75.31
2022-09-13T15:05:28.092Z,75.59
2022-09-13T15:07:54.418Z,75.19
2022-09-13T15:10:25.847Z,74.94
2022-09-13T15:13:02.815Z,75.26
2022-09-13T15:15:31.888Z,74.10
2022-09-13T15:18:01.314Z,74.15
2022-09-13T15:20:29.598Z,74.56
2022-09-13T15:22:56.612Z,73.95
2022-09-13T15:25:25.834Z,73.97
2022-09-13T15:27:53.236Z,73.79
2022-09-13T15:30:21.363Z,74.15
2022-09-13T15:32:47.948Z,74.20
2022-09-13T15:35:22.066Z,75.54
2022-09-13T15:37:58.277Z,75.80
2022-09-13T15:40:25.368Z,75.48
2022-09-13T15:42:52.395Z,76.51
2022-09-13T15:45:19.793Z,76.76
2022-09-13T15:47:47.008Z,76.97
2022-09-13T15:50:26.782Z,76.56
2022-09-13T15:52:54.434Z,76.37
2022-09-13T15:55:20.787Z,76.82
2022-09-13T15:57:47.133Z,77.09
2022-09-13T16:00:18.130Z,76.24
2022-09-13T16:02:44.561Z,76.27
2022-09-13T16:05:12.113Z,76.53
2022-09-13T16:07:39.109Z,76.86
2022-09-13T16:10:16.870Z,75.87
2022-09-13T16:12:43.391Z,75.04
2022-09-13T16:15:10.176Z,74.61
2022-09-13T16:17:36.486Z,74.78
2022-09-13T16:20:03.276Z,74.86
2022-09-13T16:22:29.589Z,74.08
2022-09-13T16:24:55.892Z,73.41
2022-09-13T16:27:22.324Z,73.49
2022-09-13T16:29:48.731Z,73.30
2022-09-13T16:32:15.645Z,73.08
2022-09-13T16:34:42.054Z,73.29
2022-09-13T16:37:08.674Z,72.57
2022-09-13T16:39:35.001Z,72.56
2022-09-13T16:42:02.216Z,71.28
2022-09-13T16:44:28.541Z,70.42
2022-09-13T16:46:54.901Z,69.67
2022-09-13T16:49:21.307Z,69.30
2022-09-13T16:51:47.630Z,68.44
2022-09-13T16:54:13.998Z,67.88
2022-09-13T16:56:40.326Z,68.01
2022-09-13T16:59:06.629Z,67.07
2022-09-13T17:01:33.211Z,66.77
2022-09-13T17:03:59.641Z,67.17
2022-09-13T17:06:26.760Z,67.00
2022-09-13T17:08:56.453Z,67.14
2022-09-13T17:11:23.883Z,66.94
2022-09-13T17:13:50.296Z,67.20
2022-09-13T17:16:24.742Z,68.15
2022-09-13T17:18:51.398Z,67.93
2022-09-13T17:21:18.202Z,68.02
2022-09-13T17:23:44.587Z,68.91
2022-09-13T17:26:11.340Z,69.20
2022-09-13T17:28:38.459Z,69.97
2022-09-13T17:31:05.431Z,69.80
2022-09-13T17:33:31.732Z,68.91
2022-09-13T17:35:59.139Z,70.35
2022-09-13T17:38:25.491Z,69.46
2022-09-13T17:41:00.714Z,69.12
2022-09-13T17:43:27.121Z,68.16
2022-09-13T17:45:53.430Z,69.85
2022-09-13T17:48:19.905Z,68.44
2022-09-13T17:50:46.221Z,67.92
2022-09-13T17:53:13.116Z,67.91
2022-09-13T17:55:49.398Z,68.39
2022-09-13T17:58:16.044Z,68.10
2022-09-13T18:00:42.464Z,68.14
2022-09-13T18:03:08.863Z,68.57
2022-09-13T18:05:35.251Z,71.21
2022-09-13T18:08:01.725Z,71.50
2022-09-13T18:10:49.233Z,71.93
2022-09-13T18:13:14.531Z,71.84
2022-09-13T18:15:40.943Z,72.67
2022-09-13T18:18:07.649Z,72.48
2022-09-13T18:20:37.426Z,72.36
2022-09-13T18:23:08.035Z,72.54
2022-09-13T18:25:34.325Z,72.51
2022-09-13T18:28:00.715Z,72.43
2022-09-13T18:30:27.055Z,72.50
2022-09-13T18:32:54.029Z,72.11
2022-09-13T18:35:20.374Z,72.10
2022-09-13T18:37:46.749Z,72.30
2022-09-13T18:40:14.040Z,72.35
2022-09-13T18:42:40.981Z,72.67
2022-09-13T18:45:07.910Z,72.50
2022-09-13T18:47:34.193Z,72.81
2022-09-13T18:50:01.837Z,72.76
2022-09-13T18:52:28.954Z,72.98
2022-09-13T18:54:55.272Z,72.96
2022-09-13T18:57:21.829Z,73.27
2022-09-13T18:59:48.654Z,73.59
2022-09-13T19:02:15.063Z,73.40
2022-09-13T19:04:41.561Z,73.88
2022-09-13T19:07:07.880Z,74.56
2022-09-13T19:09:35.612Z,73.77
2022-09-13T19:12:03.887Z,73.98
2022-09-13T19:14:31.371Z,74.03
2022-09-13T19:17:00.978Z,74.11
2022-09-13T19:19:27.464Z,73.76
2022-09-13T19:21:53.863Z,74.73
2022-09-13T19:24:21.217Z,74.99
2022-09-13T19:26:48.786Z,75.55
2022-09-13T19:29:16.153Z,75.08
2022-09-13T19:31:43.653Z,74.82
2022-09-13T19:34:10.827Z,75.08
2022-09-13T19:36:37.949Z,73.88
2022-09-13T19:39:05.199Z,73.12
2022-09-13T19:41:31.532Z,73.28
2022-09-13T19:44:00.294Z,73.16
2022-09-13T19:46:28.104Z,71.96
2022-09-13T19:48:55.460Z,71.80
2022-09-13T19:51:21.750Z,71.28
2022-09-13T19:53:58.167Z,70.77
2022-09-13T19:56:32.663Z,70.85
2022-09-13T19:58:59.746Z,70.90
2022-09-13T20:01:31.846Z,71.64
2022-09-13T20:03:59.654Z,71.71
2022-09-13T20:06:26.962Z,71.14
2022-09-13T20:08:57.071Z,71.35
2022-09-13T20:11:26.012Z,71.05
2022-09-13T20:13:52.846Z,72.00
2022-09-13T20:16:21.841Z,71.29
2022-09-13T20:18:48.391Z,71.43
2022-09-13T20:21:14.741Z,71.31
2022-09-13T20:23:42.275Z,71.42
2022-09-13T20:26:16.396Z,71.66
2022-09-13T20:28:42.823Z,70.06
2022-09-13T20:31:09.773Z,70.36
2022-09-13T20:33:36.746Z,70.66
2022-09-13T20:36:04.201Z,70.87
2022-09-13T20:38:30.890Z,70.01
2022-09-13T20:41:01.975Z,69.18
2022-09-13T20:43:28.911Z,69.95
2022-09-13T20:45:58.590Z,69.34
2022-09-13T20:48:25.536Z,69.69
2022-09-13T20:51:01.049Z,68.85
2022-09-13T20:53:27.805Z,69.16
2022-09-13T20:55:54.433Z,68.20
2022-09-13T20:58:22.000Z,68.09
2022-09-13T21:00:49.194Z,67.86
2022-09-13T21:03:16.223Z,67.46
2022-09-13T21:05:42.786Z,67.07
2022-09-13T21:08:32.955Z,67.98
2022-09-13T21:11:03.487Z,66.99
2022-09-13T21:13:33.718Z,68.41
2022-09-13T21:16:07.349Z,67.86
2022-09-13T21:18:33.765Z,69.21
2022-09-13T21:21:01.802Z,68.36
2022-09-13T21:23:30.310Z,68.53
2022-09-13T21:26:01.106Z,68.64
2022-09-13T21:28:27.445Z,68.36
2022-09-13T21:30:58.327Z,69.33
2022-09-13T21:33:25.082Z,69.67
2022-09-13T21:35:52.283Z,69.89
2022-09-13T21:38:19.005Z,70.25
2022-09-13T21:40:54.449Z,70.53
2022-09-13T21:43:21.096Z,70.26
2022-09-13T21:45:47.524Z,71.01
2022-09-13T21:48:16.974Z,70.69
2022-09-13T21:50:43.287Z,72.26
2022-09-13T21:53:09.620Z,72.16
2022-09-13T21:55:38.429Z,71.18
2022-09-13T21:58:04.947Z,71.17
2022-09-13T22:00:31.249Z,71.37
2022-09-13T22:02:57.567Z,71.32
2022-09-13T22:05:23.940Z,70.58
2022-09-13T22:07:50.248Z,70.53
2022-09-13T22:10:16.615Z,70.22
2022-09-13T22:12:43.026Z,71.17
2022-09-13T22:15:09.794Z,70.23
2022-09-13T22:17:36.217Z,70.50
2022-09-13T22:20:02.680Z,70.48
2022-09-13T22:22:29.175Z,70.17
2022-09-13T22:24:55.496Z,70.81
2022-09-13T22:27:21.791Z,70.79
2022-09-13T22:29:48.087Z,69.93
2022-09-13T22:32:14.692Z,69.68
2022-09-13T22:34:41.010Z,70.00
2022-09-13T22:37:07.715Z,70.31
2022-09-13T22:39:34.045Z,69.93
2022-09-13T22:42:00.731Z,70.14
2022-09-13T22:44:27.429Z,70.11
2022-09-13T22:46:53.796Z,70.09
2022-09-13T22:49:20.125Z,70.74
2022-09-13T22:51:47.143Z,70.68
2022-09-13T22:54:14.250Z,71.34
2022-09-13T22:56:40.751Z,71.50
2022-09-13T22:59:09.481Z,71.15
2022-09-13T23:01:36.300Z,72.03
2022-09-13T23:04:03.339Z,72.29
2022-09-13T23:06:30.323Z,71.35
2022-09-13T23:08:59.087Z,71.71
2022-09-13T23:11:26.874Z,71.56
2022-09-13T23:13:54.770Z,71.31
2022-09-13T23:16:22.961Z,72.53
2022-09-13T23:18:49.685Z,71.59
2022-09-13T23:21:18.889Z,72.12
2022-09-13T23:23:45.427Z,71.70
2022-09-13T23:26:12.970Z,72.57
2022-09-13T23:28:39.366Z,72.78
2022-09-13T23:31:11.860Z,72.32
2022-09-13T23:33:39.319Z,72.20
2022-09-13T23:36:05.802Z,73.03
2022-09-13T23:38:32.314Z,72.14
2022-09-13T23:40:59.136Z,73.21
2022-09-13T23:43:25.625Z,74.29
2022-09-13T23:45:52.124Z,73.08
2022-09-13T23:48:18.436Z,72.49
2022-09-13T23:50:45.693Z,73.46
2022-09-13T23:53:12.038Z,73.33
2022-09-13T23:55:38.356Z,74.87
2022-09-13T23:58:04.654Z,74.50
